Seymour Johnson Air Force Base
KGSB : now visible

Airfield :











YOU CAN JOIN US ON...

 
LOGIN :

Register | Disclaimer

   EN    FR    IT 

 









Legend :    VFR   Marginal VFR   IFR   Intensive IFR   Very Intensive IFR
Visi :
Ceiling :
>= 8 km
>= 3000ft
5 to 8 km
1000 to 3000 ft
1500m to 5 km
500 to 1000 ft
800 to 1500m
200 to 500 ft
< 800m
< 200 ft
Symbols :   Thunderstorms  Fog  Heavy snow  Heavy precipitations  Wind > 20 kt






- Airport Elevation : 109 ft


KGSB - Seymour Johnson Air Force Base

CURRENT METAR :
  • 101556Z AUTO 00000KT 10SM SCT029 30/23 A2989 RMK AO2 SLP124 T02960228 $

EXPIRED METARs :
  • 101456Z AUTO 32006KT 10SM FEW024 SCT170 SCT190 29/23 A2989 RMK AO2 SLP124 T02880225 52003 $
  • 101356Z AUTO 32005KT 10SM FEW160 29/23 A2989 RMK AO2 SLP124 T02890226 $

TAF TAF KGSB
Valid from the 10 at 12:00 until the 11 at 18:00 UTC


101200Z 1012/1118 33006KT 9999 FEW180 QNH2988INS
BECMG 1016/1017 33006KT 9999 SCT050 SCT100 QNH2985INS
TEMPO 1105/1109 21010KT 8000 -SHRA BR BKN040
BECMG 1109/1110 23006KT 8000 BR BKN040 QNH2976INS
BECMG 1111/1112 23006KT 9999 NSW SCT040 QNH2978INS TX33/1020Z TN26/1012Z
KZDC FIR / North America



MET'MAP, your aeronautical weather chart ! - Copyright ORBIFLY December 2007 - Disclaimer

ORBIFLY MET'MAP TEAM :

Programming & Development : Alexandra Zaïnal
Concept & original design : Baudouin d'Aumeries
Assistance for programming : Marc-Olivier Méhu
Technical & hardware support : Manuel Goepfert

Contact : metmap@orbifly.com




SOURCES & CREDITS :

   NOAA       Earth
Advisory